sensor_id;sensor_type;location;lat;lon;timestamp;P1;durP1;ratioP1;P2;durP2;ratioP2
75456;SDS011;64036;48.266;14.192;2022-10-17T00:01:40;13.20;;;8.70;;
75456;SDS011;64036;48.266;14.192;2022-10-17T00:04:06;19.50;;;10.60;;
75456;SDS011;64036;48.266;14.192;2022-10-17T00:06:32;19.10;;;10.00;;
75456;SDS011;64036;48.266;14.192;2022-10-17T00:08:57;15.10;;;9.00;;
75456;SDS011;64036;48.266;14.192;2022-10-17T00:11:23;13.50;;;8.90;;
75456;SDS011;64036;48.266;14.192;2022-10-17T00:13:50;16.60;;;9.50;;
75456;SDS011;64036;48.266;14.192;2022-10-17T00:16:42;19.80;;;9.60;;
75456;SDS011;64036;48.266;14.192;2022-10-17T00:21:33;16.50;;;9.80;;
75456;SDS011;64036;48.266;14.192;2022-10-17T00:23:59;18.70;;;11.30;;
75456;SDS011;64036;48.266;14.192;2022-10-17T00:26:25;17.10;;;10.10;;
75456;SDS011;64036;48.266;14.192;2022-10-17T00:28:53;20.00;;;12.50;;
75456;SDS011;64036;48.266;14.192;2022-10-17T00:31:20;17.80;;;10.80;;
75456;SDS011;64036;48.266;14.192;2022-10-17T00:33:47;18.20;;;11.40;;
75456;SDS011;64036;48.266;14.192;2022-10-17T00:36:17;21.70;;;12.70;;
75456;SDS011;64036;48.266;14.192;2022-10-17T00:38:46;17.50;;;11.40;;
75456;SDS011;64036;48.266;14.192;2022-10-17T00:41:16;16.70;;;10.60;;
75456;SDS011;64036;48.266;14.192;2022-10-17T00:46:27;16.70;;;10.60;;
75456;SDS011;64036;48.266;14.192;2022-10-17T00:48:56;18.20;;;12.00;;
75456;SDS011;64036;48.266;14.192;2022-10-17T00:51:53;22.00;;;12.50;;
75456;SDS011;64036;48.266;14.192;2022-10-17T00:54:45;18.80;;;11.40;;
75456;SDS011;64036;48.266;14.192;2022-10-17T00:57:14;18.80;;;11.80;;
75456;SDS011;64036;48.266;14.192;2022-10-17T00:59:42;19.00;;;11.80;;
75456;SDS011;64036;48.266;14.192;2022-10-17T01:02:12;18.30;;;12.00;;
75456;SDS011;64036;48.266;14.192;2022-10-17T01:04:43;19.70;;;12.60;;
75456;SDS011;64036;48.266;14.192;2022-10-17T01:07:10;17.10;;;11.10;;
75456;SDS011;64036;48.266;14.192;2022-10-17T01:09:36;21.70;;;13.90;;
75456;SDS011;64036;48.266;14.192;2022-10-17T01:12:19;20.40;;;13.20;;
75456;SDS011;64036;48.266;14.192;2022-10-17T01:31:54;20.60;;;11.40;;
75456;SDS011;64036;48.266;14.192;2022-10-17T01:34:31;17.50;;;10.50;;
75456;SDS011;64036;48.266;14.192;2022-10-17T01:37:32;17.10;;;11.10;;
75456;SDS011;64036;48.266;14.192;2022-10-17T01:40:13;15.50;;;9.10;;
75456;SDS011;64036;48.266;14.192;2022-10-17T01:42:54;14.70;;;9.40;;
75456;SDS011;64036;48.266;14.192;2022-10-17T01:48:21;15.10;;;7.70;;
75456;SDS011;64036;48.266;14.192;2022-10-17T01:50:52;13.40;;;7.30;;
75456;SDS011;64036;48.266;14.192;2022-10-17T01:53:27;15.10;;;7.40;;
75456;SDS011;64036;48.266;14.192;2022-10-17T01:55:59;11.40;;;7.80;;
75456;SDS011;64036;48.266;14.192;2022-10-17T01:58:29;13.90;;;8.50;;
75456;SDS011;64036;48.266;14.192;2022-10-17T02:01:00;14.90;;;9.00;;
75456;SDS011;64036;48.266;14.192;2022-10-17T02:03:28;17.90;;;8.70;;
75456;SDS011;64036;48.266;14.192;2022-10-17T02:05:56;15.10;;;8.80;;
75456;SDS011;64036;48.266;14.192;2022-10-17T02:08:46;13.80;;;8.80;;
75456;SDS011;64036;48.266;14.192;2022-10-17T02:11:16;14.80;;;9.20;;
75456;SDS011;64036;48.266;14.192;2022-10-17T02:30:39;16.30;;;10.30;;
75456;SDS011;64036;48.266;14.192;2022-10-17T02:33:11;21.60;;;12.30;;
75456;SDS011;64036;48.266;14.192;2022-10-17T02:35:46;20.00;;;11.90;;
75456;SDS011;64036;48.266;14.192;2022-10-17T02:38:17;18.10;;;10.50;;
75456;SDS011;64036;48.266;14.192;2022-10-17T02:40:43;18.70;;;10.40;;
75456;SDS011;64036;48.266;14.192;2022-10-17T02:43:11;21.20;;;12.70;;
75456;SDS011;64036;48.266;14.192;2022-10-17T02:45:37;22.10;;;13.70;;
75456;SDS011;64036;48.266;14.192;2022-10-17T02:48:27;20.80;;;11.80;;
75456;SDS011;64036;48.266;14.192;2022-10-17T02:53:47;24.10;;;14.20;;
75456;SDS011;64036;48.266;14.192;2022-10-17T02:56:20;22.90;;;13.20;;
75456;SDS011;64036;48.266;14.192;2022-10-17T02:58:49;22.20;;;13.70;;
75456;SDS011;64036;48.266;14.192;2022-10-17T03:01:18;20.40;;;12.60;;
75456;SDS011;64036;48.266;14.192;2022-10-17T03:03:45;17.20;;;11.10;;
75456;SDS011;64036;48.266;14.192;2022-10-17T03:06:10;15.80;;;10.70;;
75456;SDS011;64036;48.266;14.192;2022-10-17T03:08:36;14.00;;;9.50;;
75456;SDS011;64036;48.266;14.192;2022-10-17T03:11:02;16.90;;;9.80;;
75456;SDS011;64036;48.266;14.192;2022-10-17T03:13:28;17.60;;;11.30;;
75456;SDS011;64036;48.266;14.192;2022-10-17T03:15:55;18.60;;;11.10;;
75456;SDS011;64036;48.266;14.192;2022-10-17T03:18:21;16.80;;;10.30;;
75456;SDS011;64036;48.266;14.192;2022-10-17T03:20:47;17.50;;;9.80;;
75456;SDS011;64036;48.266;14.192;2022-10-17T03:23:12;16.40;;;10.80;;
75456;SDS011;64036;48.266;14.192;2022-10-17T03:25:38;18.50;;;11.20;;
75456;SDS011;64036;48.266;14.192;2022-10-17T03:28:05;15.90;;;10.30;;
75456;SDS011;64036;48.266;14.192;2022-10-17T03:30:31;15.10;;;9.60;;
75456;SDS011;64036;48.266;14.192;2022-10-17T03:32:58;21.50;;;11.40;;
75456;SDS011;64036;48.266;14.192;2022-10-17T03:35:25;16.20;;;10.30;;
75456;SDS011;64036;48.266;14.192;2022-10-17T03:37:51;21.80;;;12.90;;
75456;SDS011;64036;48.266;14.192;2022-10-17T03:40:19;24.10;;;14.20;;
75456;SDS011;64036;48.266;14.192;2022-10-17T03:42:45;24.20;;;14.80;;
75456;SDS011;64036;48.266;14.192;2022-10-17T03:45:10;22.50;;;14.90;;
75456;SDS011;64036;48.266;14.192;2022-10-17T03:47:36;21.10;;;13.00;;
75456;SDS011;64036;48.266;14.192;2022-10-17T03:50:02;26.50;;;13.80;;
75456;SDS011;64036;48.266;14.192;2022-10-17T03:52:28;21.40;;;13.40;;
75456;SDS011;64036;48.266;14.192;2022-10-17T03:54:54;24.70;;;14.00;;
75456;SDS011;64036;48.266;14.192;2022-10-17T03:57:19;20.20;;;12.50;;
75456;SDS011;64036;48.266;14.192;2022-10-17T03:59:45;17.50;;;10.50;;
75456;SDS011;64036;48.266;14.192;2022-10-17T04:02:10;16.20;;;10.40;;
75456;SDS011;64036;48.266;14.192;2022-10-17T04:04:36;19.40;;;11.30;;
75456;SDS011;64036;48.266;14.192;2022-10-17T04:07:02;19.80;;;12.30;;
75456;SDS011;64036;48.266;14.192;2022-10-17T04:09:28;21.50;;;12.80;;
75456;SDS011;64036;48.266;14.192;2022-10-17T04:11:53;18.60;;;11.90;;
75456;SDS011;64036;48.266;14.192;2022-10-17T04:14:19;19.70;;;12.30;;
75456;SDS011;64036;48.266;14.192;2022-10-17T04:16:45;18.70;;;12.00;;
75456;SDS011;64036;48.266;14.192;2022-10-17T04:19:11;20.80;;;12.40;;
75456;SDS011;64036;48.266;14.192;2022-10-17T04:21:38;20.80;;;12.40;;
75456;SDS011;64036;48.266;14.192;2022-10-17T04:24:03;20.30;;;12.60;;
75456;SDS011;64036;48.266;14.192;2022-10-17T04:26:29;20.30;;;13.20;;
75456;SDS011;64036;48.266;14.192;2022-10-17T04:28:55;18.50;;;13.00;;
75456;SDS011;64036;48.266;14.192;2022-10-17T04:31:21;17.50;;;11.90;;
75456;SDS011;64036;48.266;14.192;2022-10-17T04:33:48;15.60;;;11.30;;
75456;SDS011;64036;48.266;14.192;2022-10-17T04:36:17;17.60;;;11.60;;
75456;SDS011;64036;48.266;14.192;2022-10-17T04:38:44;18.50;;;12.40;;
75456;SDS011;64036;48.266;14.192;2022-10-17T04:41:12;19.20;;;12.20;;
75456;SDS011;64036;48.266;14.192;2022-10-17T04:43:40;19.40;;;11.90;;
75456;SDS011;64036;48.266;14.192;2022-10-17T04:46:08;18.90;;;11.70;;
75456;SDS011;64036;48.266;14.192;2022-10-17T04:48:36;20.20;;;13.40;;
75456;SDS011;64036;48.266;14.192;2022-10-17T04:51:09;21.30;;;13.80;;
75456;SDS011;64036;48.266;14.192;2022-10-17T04:53:38;21.00;;;13.30;;
75456;SDS011;64036;48.266;14.192;2022-10-17T04:56:10;23.50;;;15.30;;
75456;SDS011;64036;48.266;14.192;2022-10-17T04:58:38;22.30;;;14.50;;
75456;SDS011;64036;48.266;14.192;2022-10-17T05:01:06;22.80;;;15.10;;
75456;SDS011;64036;48.266;14.192;2022-10-17T05:03:33;26.60;;;15.90;;
75456;SDS011;64036;48.266;14.192;2022-10-17T05:06:05;19.30;;;13.20;;
75456;SDS011;64036;48.266;14.192;2022-10-17T05:08:33;19.20;;;13.10;;
75456;SDS011;64036;48.266;14.192;2022-10-17T05:10:59;22.20;;;15.50;;
75456;SDS011;64036;48.266;14.192;2022-10-17T05:13:24;21.70;;;13.40;;
75456;SDS011;64036;48.266;14.192;2022-10-17T05:15:50;24.50;;;15.70;;
75456;SDS011;64036;48.266;14.192;2022-10-17T05:18:15;23.90;;;16.40;;
75456;SDS011;64036;48.266;14.192;2022-10-17T05:20:41;19.20;;;12.40;;
75456;SDS011;64036;48.266;14.192;2022-10-17T05:23:07;19.40;;;12.70;;
75456;SDS011;64036;48.266;14.192;2022-10-17T05:25:35;20.70;;;14.50;;
75456;SDS011;64036;48.266;14.192;2022-10-17T05:28:01;24.30;;;15.90;;
75456;SDS011;64036;48.266;14.192;2022-10-17T05:30:27;22.80;;;14.80;;
75456;SDS011;64036;48.266;14.192;2022-10-17T05:32:53;18.00;;;11.80;;
75456;SDS011;64036;48.266;14.192;2022-10-17T05:35:20;22.30;;;15.10;;
75456;SDS011;64036;48.266;14.192;2022-10-17T05:37:46;23.30;;;16.00;;
75456;SDS011;64036;48.266;14.192;2022-10-17T05:40:12;23.70;;;16.40;;
75456;SDS011;64036;48.266;14.192;2022-10-17T05:42:38;25.20;;;17.50;;
75456;SDS011;64036;48.266;14.192;2022-10-17T05:45:04;22.00;;;15.50;;
75456;SDS011;64036;48.266;14.192;2022-10-17T05:47:30;25.30;;;16.90;;
75456;SDS011;64036;48.266;14.192;2022-10-17T05:49:56;21.40;;;15.10;;
75456;SDS011;64036;48.266;14.192;2022-10-17T05:52:21;24.80;;;16.70;;
75456;SDS011;64036;48.266;14.192;2022-10-17T05:54:47;22.10;;;14.90;;
75456;SDS011;64036;48.266;14.192;2022-10-17T05:57:12;24.30;;;16.70;;
75456;SDS011;64036;48.266;14.192;2022-10-17T05:59:38;26.50;;;17.90;;
75456;SDS011;64036;48.266;14.192;2022-10-17T06:02:03;25.70;;;17.00;;
75456;SDS011;64036;48.266;14.192;2022-10-17T06:04:29;26.30;;;16.70;;
75456;SDS011;64036;48.266;14.192;2022-10-17T06:06:55;21.70;;;14.90;;
75456;SDS011;64036;48.266;14.192;2022-10-17T06:09:21;23.90;;;15.50;;
75456;SDS011;64036;48.266;14.192;2022-10-17T06:11:47;20.40;;;13.80;;
75456;SDS011;64036;48.266;14.192;2022-10-17T06:14:13;18.70;;;11.80;;
75456;SDS011;64036;48.266;14.192;2022-10-17T06:16:39;30.70;;;18.70;;
75456;SDS011;64036;48.266;14.192;2022-10-17T06:19:04;27.50;;;18.70;;
75456;SDS011;64036;48.266;14.192;2022-10-17T06:21:30;27.40;;;18.70;;
75456;SDS011;64036;48.266;14.192;2022-10-17T06:24:00;23.80;;;15.70;;
75456;SDS011;64036;48.266;14.192;2022-10-17T06:26:26;21.30;;;14.30;;
75456;SDS011;64036;48.266;14.192;2022-10-17T06:28:53;17.90;;;11.40;;
75456;SDS011;64036;48.266;14.192;2022-10-17T06:31:19;26.30;;;16.90;;
75456;SDS011;64036;48.266;14.192;2022-10-17T06:33:45;27.30;;;17.70;;
75456;SDS011;64036;48.266;14.192;2022-10-17T06:36:12;30.10;;;19.50;;
75456;SDS011;64036;48.266;14.192;2022-10-17T06:38:53;19.90;;;13.20;;
75456;SDS011;64036;48.266;14.192;2022-10-17T06:41:19;26.10;;;17.70;;
75456;SDS011;64036;48.266;14.192;2022-10-17T06:43:45;26.60;;;16.90;;
75456;SDS011;64036;48.266;14.192;2022-10-17T06:46:15;26.40;;;15.50;;
75456;SDS011;64036;48.266;14.192;2022-10-17T06:51:08;21.30;;;13.30;;
75456;SDS011;64036;48.266;14.192;2022-10-17T06:53:36;28.30;;;17.50;;
75456;SDS011;64036;48.266;14.192;2022-10-17T06:56:05;26.30;;;17.30;;
75456;SDS011;64036;48.266;14.192;2022-10-17T06:58:34;32.70;;;18.70;;
75456;SDS011;64036;48.266;14.192;2022-10-17T07:01:12;20.20;;;13.10;;
75456;SDS011;64036;48.266;14.192;2022-10-17T07:03:39;24.30;;;15.90;;
75456;SDS011;64036;48.266;14.192;2022-10-17T07:06:05;23.50;;;14.50;;
75456;SDS011;64036;48.266;14.192;2022-10-17T07:08:32;21.60;;;13.50;;
75456;SDS011;64036;48.266;14.192;2022-10-17T07:10:57;30.50;;;19.00;;
75456;SDS011;64036;48.266;14.192;2022-10-17T07:13:24;24.40;;;16.10;;
75456;SDS011;64036;48.266;14.192;2022-10-17T07:15:49;28.00;;;17.80;;
75456;SDS011;64036;48.266;14.192;2022-10-17T07:18:15;29.00;;;17.90;;
75456;SDS011;64036;48.266;14.192;2022-10-17T07:20:41;28.50;;;17.30;;
75456;SDS011;64036;48.266;14.192;2022-10-17T07:23:07;28.40;;;17.70;;
75456;SDS011;64036;48.266;14.192;2022-10-17T07:25:32;29.60;;;18.50;;
75456;SDS011;64036;48.266;14.192;2022-10-17T07:27:58;29.40;;;18.50;;
75456;SDS011;64036;48.266;14.192;2022-10-17T07:30:24;31.80;;;18.80;;
75456;SDS011;64036;48.266;14.192;2022-10-17T07:32:52;25.60;;;14.90;;
75456;SDS011;64036;48.266;14.192;2022-10-17T07:35:19;22.10;;;14.00;;
75456;SDS011;64036;48.266;14.192;2022-10-17T07:37:45;26.80;;;16.70;;
75456;SDS011;64036;48.266;14.192;2022-10-17T07:40:11;29.00;;;17.60;;
75456;SDS011;64036;48.266;14.192;2022-10-17T07:42:37;26.00;;;17.00;;
75456;SDS011;64036;48.266;14.192;2022-10-17T07:45:03;23.80;;;15.60;;
75456;SDS011;64036;48.266;14.192;2022-10-17T07:47:29;22.40;;;14.40;;
75456;SDS011;64036;48.266;14.192;2022-10-17T07:49:56;19.50;;;11.70;;
75456;SDS011;64036;48.266;14.192;2022-10-17T07:52:22;23.30;;;15.00;;
75456;SDS011;64036;48.266;14.192;2022-10-17T07:54:48;21.60;;;14.10;;
75456;SDS011;64036;48.266;14.192;2022-10-17T07:57:13;20.90;;;12.70;;
75456;SDS011;64036;48.266;14.192;2022-10-17T07:59:39;18.30;;;11.50;;
75456;SDS011;64036;48.266;14.192;2022-10-17T08:02:05;17.80;;;10.60;;
75456;SDS011;64036;48.266;14.192;2022-10-17T08:04:33;25.10;;;15.40;;
75456;SDS011;64036;48.266;14.192;2022-10-17T08:07:00;20.40;;;13.00;;
75456;SDS011;64036;48.266;14.192;2022-10-17T08:09:26;21.80;;;14.50;;
75456;SDS011;64036;48.266;14.192;2022-10-17T08:11:51;24.70;;;16.10;;
75456;SDS011;64036;48.266;14.192;2022-10-17T08:14:18;22.50;;;14.70;;
75456;SDS011;64036;48.266;14.192;2022-10-17T08:16:44;19.60;;;12.40;;
75456;SDS011;64036;48.266;14.192;2022-10-17T08:19:09;21.40;;;13.70;;
75456;SDS011;64036;48.266;14.192;2022-10-17T08:21:36;19.80;;;12.40;;
75456;SDS011;64036;48.266;14.192;2022-10-17T08:24:02;23.30;;;14.90;;
75456;SDS011;64036;48.266;14.192;2022-10-17T08:26:29;17.00;;;10.50;;
75456;SDS011;64036;48.266;14.192;2022-10-17T08:28:55;22.90;;;13.30;;
75456;SDS011;64036;48.266;14.192;2022-10-17T08:31:21;23.10;;;15.30;;
75456;SDS011;64036;48.266;14.192;2022-10-17T08:33:48;22.80;;;14.70;;
75456;SDS011;64036;48.266;14.192;2022-10-17T08:36:16;21.60;;;13.70;;
75456;SDS011;64036;48.266;14.192;2022-10-17T08:38:43;27.20;;;17.40;;
75456;SDS011;64036;48.266;14.192;2022-10-17T08:47:44;24.00;;;15.40;;
75456;SDS011;64036;48.266;14.192;2022-10-17T08:55:43;23.70;;;16.50;;
75456;SDS011;64036;48.266;14.192;2022-10-17T08:58:18;22.70;;;15.30;;
75456;SDS011;64036;48.266;14.192;2022-10-17T09:00:51;22.10;;;15.00;;
75456;SDS011;64036;48.266;14.192;2022-10-17T09:03:29;22.10;;;14.30;;
75456;SDS011;64036;48.266;14.192;2022-10-17T09:06:24;25.50;;;15.20;;
75456;SDS011;64036;48.266;14.192;2022-10-17T09:12:04;26.10;;;15.50;;
75456;SDS011;64036;48.266;14.192;2022-10-17T09:20:53;17.60;;;11.80;;
75456;SDS011;64036;48.266;14.192;2022-10-17T09:23:29;20.80;;;14.10;;
75456;SDS011;64036;48.266;14.192;2022-10-17T09:25:59;24.20;;;16.20;;
75456;SDS011;64036;48.266;14.192;2022-10-17T09:28:30;22.10;;;14.70;;
75456;SDS011;64036;48.266;14.192;2022-10-17T09:31:04;29.10;;;17.80;;
75456;SDS011;64036;48.266;14.192;2022-10-17T09:33:36;24.90;;;15.40;;
75456;SDS011;64036;48.266;14.192;2022-10-17T09:41:53;26.00;;;16.90;;
75456;SDS011;64036;48.266;14.192;2022-10-17T09:47:21;22.40;;;15.20;;
75456;SDS011;64036;48.266;14.192;2022-10-17T09:50:00;24.30;;;16.50;;
75456;SDS011;64036;48.266;14.192;2022-10-17T09:52:33;18.10;;;13.00;;
75456;SDS011;64036;48.266;14.192;2022-10-17T09:55:36;20.20;;;13.80;;
75456;SDS011;64036;48.266;14.192;2022-10-17T09:58:07;17.90;;;12.00;;
75456;SDS011;64036;48.266;14.192;2022-10-17T10:00:42;25.30;;;15.90;;
75456;SDS011;64036;48.266;14.192;2022-10-17T10:03:23;21.90;;;14.20;;
75456;SDS011;64036;48.266;14.192;2022-10-17T10:11:24;20.90;;;14.00;;
75456;SDS011;64036;48.266;14.192;2022-10-17T10:14:18;21.30;;;14.20;;
75456;SDS011;64036;48.266;14.192;2022-10-17T10:16:50;18.20;;;11.80;;
75456;SDS011;64036;48.266;14.192;2022-10-17T10:19:30;21.10;;;14.80;;
75456;SDS011;64036;48.266;14.192;2022-10-17T10:22:00;27.10;;;17.70;;
75456;SDS011;64036;48.266;14.192;2022-10-17T10:24:27;22.70;;;15.00;;
75456;SDS011;64036;48.266;14.192;2022-10-17T10:27:01;23.90;;;16.70;;
75456;SDS011;64036;48.266;14.192;2022-10-17T10:29:36;22.00;;;14.90;;
75456;SDS011;64036;48.266;14.192;2022-10-17T10:32:30;25.60;;;16.20;;
75456;SDS011;64036;48.266;14.192;2022-10-17T10:35:31;23.70;;;15.90;;
75456;SDS011;64036;48.266;14.192;2022-10-17T10:38:02;21.00;;;14.30;;
75456;SDS011;64036;48.266;14.192;2022-10-17T10:40:43;23.20;;;14.70;;
75456;SDS011;64036;48.266;14.192;2022-10-17T10:46:21;23.60;;;15.70;;
75456;SDS011;64036;48.266;14.192;2022-10-17T10:48:54;22.00;;;15.80;;
75456;SDS011;64036;48.266;14.192;2022-10-17T10:51:40;24.00;;;15.70;;
75456;SDS011;64036;48.266;14.192;2022-10-17T10:54:13;26.00;;;17.00;;
75456;SDS011;64036;48.266;14.192;2022-10-17T10:56:43;25.70;;;16.60;;
75456;SDS011;64036;48.266;14.192;2022-10-17T10:59:16;24.50;;;17.00;;
75456;SDS011;64036;48.266;14.192;2022-10-17T11:02:13;22.20;;;15.10;;
75456;SDS011;64036;48.266;14.192;2022-10-17T11:07:34;29.10;;;14.80;;
75456;SDS011;64036;48.266;14.192;2022-10-17T11:13:24;24.60;;;16.80;;
75456;SDS011;64036;48.266;14.192;2022-10-17T11:16:05;18.30;;;12.50;;
75456;SDS011;64036;48.266;14.192;2022-10-17T11:21:32;21.50;;;15.90;;
75456;SDS011;64036;48.266;14.192;2022-10-17T11:24:11;19.80;;;14.10;;
75456;SDS011;64036;48.266;14.192;2022-10-17T11:26:53;23.00;;;15.80;;
75456;SDS011;64036;48.266;14.192;2022-10-17T11:29:29;20.20;;;14.50;;
75456;SDS011;64036;48.266;14.192;2022-10-17T11:32:01;22.10;;;16.00;;
75456;SDS011;64036;48.266;14.192;2022-10-17T11:34:33;21.40;;;16.10;;
75456;SDS011;64036;48.266;14.192;2022-10-17T11:37:14;20.30;;;14.70;;
75456;SDS011;64036;48.266;14.192;2022-10-17T11:40:13;25.20;;;17.30;;
75456;SDS011;64036;48.266;14.192;2022-10-17T11:42:59;23.40;;;16.90;;
75456;SDS011;64036;48.266;14.192;2022-10-17T11:45:29;18.40;;;13.50;;
75456;SDS011;64036;48.266;14.192;2022-10-17T11:48:03;22.70;;;16.40;;
75456;SDS011;64036;48.266;14.192;2022-10-17T11:50:34;18.50;;;14.10;;
75456;SDS011;64036;48.266;14.192;2022-10-17T11:53:12;21.90;;;15.10;;
75456;SDS011;64036;48.266;14.192;2022-10-17T11:55:40;24.10;;;17.20;;
75456;SDS011;64036;48.266;14.192;2022-10-17T11:58:40;21.70;;;15.90;;
75456;SDS011;64036;48.266;14.192;2022-10-17T12:04:13;20.30;;;15.20;;
75456;SDS011;64036;48.266;14.192;2022-10-17T12:12:23;22.30;;;15.90;;
75456;SDS011;64036;48.266;14.192;2022-10-17T12:14:54;23.10;;;17.50;;
75456;SDS011;64036;48.266;14.192;2022-10-17T12:17:59;18.90;;;13.40;;
75456;SDS011;64036;48.266;14.192;2022-10-17T12:20:34;24.90;;;16.90;;
75456;SDS011;64036;48.266;14.192;2022-10-17T12:25:36;20.20;;;14.80;;
75456;SDS011;64036;48.266;14.192;2022-10-17T12:54:52;21.80;;;16.50;;
75456;SDS011;64036;48.266;14.192;2022-10-17T13:03:16;19.90;;;13.70;;
75456;SDS011;64036;48.266;14.192;2022-10-17T13:05:48;23.30;;;15.90;;
75456;SDS011;64036;48.266;14.192;2022-10-17T13:08:21;19.50;;;13.90;;
75456;SDS011;64036;48.266;14.192;2022-10-17T13:10:50;20.10;;;14.00;;
75456;SDS011;64036;48.266;14.192;2022-10-17T13:13:24;21.40;;;14.90;;
75456;SDS011;64036;48.266;14.192;2022-10-17T13:15:58;20.90;;;15.20;;
75456;SDS011;64036;48.266;14.192;2022-10-17T13:18:26;16.30;;;10.10;;
75456;SDS011;64036;48.266;14.192;2022-10-17T13:21:03;25.20;;;15.50;;
75456;SDS011;64036;48.266;14.192;2022-10-17T13:23:39;21.00;;;14.30;;
75456;SDS011;64036;48.266;14.192;2022-10-17T13:26:16;21.80;;;14.40;;
75456;SDS011;64036;48.266;14.192;2022-10-17T13:29:09;23.00;;;15.90;;
75456;SDS011;64036;48.266;14.192;2022-10-17T13:31:37;19.00;;;13.50;;
75456;SDS011;64036;48.266;14.192;2022-10-17T13:34:14;23.30;;;15.20;;
75456;SDS011;64036;48.266;14.192;2022-10-17T13:36:42;22.30;;;15.60;;
75456;SDS011;64036;48.266;14.192;2022-10-17T13:39:13;20.20;;;15.10;;
75456;SDS011;64036;48.266;14.192;2022-10-17T13:41:42;21.70;;;15.70;;
75456;SDS011;64036;48.266;14.192;2022-10-17T13:44:19;21.00;;;14.60;;
75456;SDS011;64036;48.266;14.192;2022-10-17T13:46:47;25.00;;;17.20;;
75456;SDS011;64036;48.266;14.192;2022-10-17T13:51:47;23.20;;;16.40;;
75456;SDS011;64036;48.266;14.192;2022-10-17T13:56:56;21.60;;;15.60;;
75456;SDS011;64036;48.266;14.192;2022-10-17T13:59:25;20.20;;;14.80;;
75456;SDS011;64036;48.266;14.192;2022-10-17T14:01:54;21.10;;;15.30;;
75456;SDS011;64036;48.266;14.192;2022-10-17T14:04:21;22.70;;;15.50;;
75456;SDS011;64036;48.266;14.192;2022-10-17T14:06:47;19.70;;;14.00;;
75456;SDS011;64036;48.266;14.192;2022-10-17T14:09:27;21.90;;;16.30;;
75456;SDS011;64036;48.266;14.192;2022-10-17T14:12:10;21.50;;;15.30;;
75456;SDS011;64036;48.266;14.192;2022-10-17T14:14:46;23.20;;;16.40;;
75456;SDS011;64036;48.266;14.192;2022-10-17T14:17:16;19.60;;;13.30;;
75456;SDS011;64036;48.266;14.192;2022-10-17T14:19:56;21.70;;;15.00;;
75456;SDS011;64036;48.266;14.192;2022-10-17T14:22:28;20.70;;;14.70;;
75456;SDS011;64036;48.266;14.192;2022-10-17T14:24:55;23.90;;;15.50;;
75456;SDS011;64036;48.266;14.192;2022-10-17T14:27:52;21.50;;;15.20;;
75456;SDS011;64036;48.266;14.192;2022-10-17T14:30:34;22.60;;;16.00;;
75456;SDS011;64036;48.266;14.192;2022-10-17T14:33:04;21.50;;;14.30;;
75456;SDS011;64036;48.266;14.192;2022-10-17T14:35:32;21.40;;;14.60;;
75456;SDS011;64036;48.266;14.192;2022-10-17T14:38:04;25.10;;;18.10;;
75456;SDS011;64036;48.266;14.192;2022-10-17T14:40:31;21.90;;;15.70;;
75456;SDS011;64036;48.266;14.192;2022-10-17T14:43:04;25.70;;;16.80;;
75456;SDS011;64036;48.266;14.192;2022-10-17T14:45:37;22.30;;;16.90;;
75456;SDS011;64036;48.266;14.192;2022-10-17T14:48:17;26.10;;;15.90;;
75456;SDS011;64036;48.266;14.192;2022-10-17T14:51:10;23.50;;;16.10;;
75456;SDS011;64036;48.266;14.192;2022-10-17T14:53:42;25.50;;;16.80;;
75456;SDS011;64036;48.266;14.192;2022-10-17T14:56:27;23.40;;;16.00;;
75456;SDS011;64036;48.266;14.192;2022-10-17T14:58:59;27.20;;;17.10;;
75456;SDS011;64036;48.266;14.192;2022-10-17T15:01:27;23.70;;;16.60;;
75456;SDS011;64036;48.266;14.192;2022-10-17T15:03:53;24.90;;;16.90;;
75456;SDS011;64036;48.266;14.192;2022-10-17T15:06:26;22.10;;;16.00;;
75456;SDS011;64036;48.266;14.192;2022-10-17T15:08:53;23.10;;;14.90;;
75456;SDS011;64036;48.266;14.192;2022-10-17T15:11:18;27.90;;;17.20;;
75456;SDS011;64036;48.266;14.192;2022-10-17T15:13:44;27.30;;;18.10;;
75456;SDS011;64036;48.266;14.192;2022-10-17T15:16:24;22.40;;;15.40;;
75456;SDS011;64036;48.266;14.192;2022-10-17T15:18:52;24.40;;;16.10;;
75456;SDS011;64036;48.266;14.192;2022-10-17T15:21:20;21.90;;;16.00;;
75456;SDS011;64036;48.266;14.192;2022-10-17T15:23:48;23.70;;;16.00;;
75456;SDS011;64036;48.266;14.192;2022-10-17T15:28:41;27.40;;;17.80;;
75456;SDS011;64036;48.266;14.192;2022-10-17T15:31:10;26.40;;;16.90;;
75456;SDS011;64036;48.266;14.192;2022-10-17T15:33:36;26.80;;;17.40;;
75456;SDS011;64036;48.266;14.192;2022-10-17T15:36:02;26.50;;;16.80;;
75456;SDS011;64036;48.266;14.192;2022-10-17T15:38:28;28.70;;;18.70;;
75456;SDS011;64036;48.266;14.192;2022-10-17T15:40:53;31.50;;;19.20;;
75456;SDS011;64036;48.266;14.192;2022-10-17T15:43:19;28.10;;;18.10;;
75456;SDS011;64036;48.266;14.192;2022-10-17T15:45:45;27.40;;;17.10;;
75456;SDS011;64036;48.266;14.192;2022-10-17T15:48:18;27.20;;;17.30;;
75456;SDS011;64036;48.266;14.192;2022-10-17T15:50:51;28.80;;;18.40;;
75456;SDS011;64036;48.266;14.192;2022-10-17T15:53:17;27.20;;;17.70;;
75456;SDS011;64036;48.266;14.192;2022-10-17T15:55:43;27.30;;;17.40;;
75456;SDS011;64036;48.266;14.192;2022-10-17T15:58:14;31.00;;;17.20;;
75456;SDS011;64036;48.266;14.192;2022-10-17T16:00:40;25.50;;;16.60;;
75456;SDS011;64036;48.266;14.192;2022-10-17T16:03:06;27.50;;;15.80;;
75456;SDS011;64036;48.266;14.192;2022-10-17T16:05:31;31.40;;;18.30;;
75456;SDS011;64036;48.266;14.192;2022-10-17T16:07:57;27.30;;;17.70;;
75456;SDS011;64036;48.266;14.192;2022-10-17T16:10:23;27.00;;;17.20;;
75456;SDS011;64036;48.266;14.192;2022-10-17T16:12:53;29.30;;;17.50;;
75456;SDS011;64036;48.266;14.192;2022-10-17T16:15:21;25.90;;;16.00;;
75456;SDS011;64036;48.266;14.192;2022-10-17T16:17:50;28.80;;;17.20;;
75456;SDS011;64036;48.266;14.192;2022-10-17T16:20:17;28.30;;;17.80;;
75456;SDS011;64036;48.266;14.192;2022-10-17T16:22:44;28.50;;;18.90;;
75456;SDS011;64036;48.266;14.192;2022-10-17T16:25:20;21.50;;;13.70;;
75456;SDS011;64036;48.266;14.192;2022-10-17T16:27:50;30.50;;;17.70;;
75456;SDS011;64036;48.266;14.192;2022-10-17T16:30:17;31.00;;;18.60;;
75456;SDS011;64036;48.266;14.192;2022-10-17T16:32:43;24.80;;;16.00;;
75456;SDS011;64036;48.266;14.192;2022-10-17T16:35:15;25.90;;;15.50;;
75456;SDS011;64036;48.266;14.192;2022-10-17T16:37:46;27.10;;;16.70;;
75456;SDS011;64036;48.266;14.192;2022-10-17T16:40:13;27.30;;;16.80;;
75456;SDS011;64036;48.266;14.192;2022-10-17T16:42:39;31.40;;;18.30;;
75456;SDS011;64036;48.266;14.192;2022-10-17T16:45:05;28.30;;;17.90;;
75456;SDS011;64036;48.266;14.192;2022-10-17T16:47:31;31.80;;;18.80;;
75456;SDS011;64036;48.266;14.192;2022-10-17T16:49:57;26.70;;;16.60;;
75456;SDS011;64036;48.266;14.192;2022-10-17T16:52:23;21.70;;;13.20;;
75456;SDS011;64036;48.266;14.192;2022-10-17T16:54:48;30.20;;;18.40;;